Flag for USA

Past Weather in Tehachapi, California, USA — Yesterday and Last 2 Weeks

Currently: 46 °F. Clear. (Weather station: Mojave Airport, USA). See more current weather

Past Weather in Tehachapi — Graph

°F

Tehachapi Temperature Yesterday

Maximum temperature yesterday: 72 °F (at 2:00 pm)
Minimum temperature yesterday: 48 °F (at 9:40 pm)
Average temperature yesterday: 58 °F

High & Low Weather Summary for the Past Weeks

 TemperatureHumidityPressure
High72 °F (Jan 15, 2:00 pm)75% (Jan 4, 2:00 am)30.28 "Hg (Jan 4, 2:00 am)
Low34 °F (Jan 7, 5:20 am)12% (Jan 6, 4:40 pm)30.08 "Hg (Jan 5, 4:20 am)
Average49 °F44%30.18 "Hg
* Reported Jan 1 3:00 am — Jan 16 3:20 am, Tehachapi. Weather by CustomWeather, © 2021

Note: Actual official high and low records may vary slightly from our data, if they occured in-between our weather recording intervals... More about our weather records

Tehachapi Weather History for the Previous 24 Hours

Scroll right to see more
 ConditionsComfort  
Time TempWeatherWind HumidityBarometerVisibility
3:20 am
Sat, Jan 16
50 °FClear.12 mph30%30.16 "Hg10 mi
3:00 am50 °FClear.12 mph30%30.17 "Hg10 mi
2:40 am52 °FClear.9 mph28%30.17 "Hg10 mi
2:20 am52 °FClear.No wind28%30.17 "Hg10 mi
1:40 am55 °FClear.7 mph24%30.16 "Hg10 mi
1:20 am52 °FClear.8 mph28%30.16 "Hg10 mi
1:00 am52 °FClear.5 mph28%30.15 "Hg10 mi
12:40 am54 °FClear.No wind26%30.15 "Hg10 mi
12:20 am54 °FClear.No wind26%30.16 "Hg10 mi
12:00 am55 °FClear.No wind24%30.15 "Hg10 mi
11:40 pm
Fri, Jan 15
55 °FClear.3 mph24%30.15 "Hg10 mi
11:20 pm50 °FClear.6 mph30%30.16 "Hg10 mi
11:00 pm50 °FClear.5 mph30%30.17 "Hg10 mi
10:40 pm54 °FClear.10 mph26%30.19 "Hg10 mi
10:20 pm52 °FClear.9 mph28%30.19 "Hg10 mi
10:00 pm48 °FClear.10 mph32%30.19 "Hg10 mi
9:40 pm48 °FClear.8 mph32%30.19 "Hg10 mi
9:20 pm50 °FClear.7 mph30%30.19 "Hg10 mi
9:00 pm50 °FClear.5 mph30%30.20 "Hg10 mi
8:40 pm52 °FClear.5 mph28%30.20 "Hg10 mi
8:20 pm54 °FClear.6 mph26%30.20 "Hg10 mi
8:00 pm54 °FClear.6 mph26%30.21 "Hg10 mi
7:40 pm54 °FClear.7 mph26%30.20 "Hg10 mi
7:20 pm52 °FClear.10 mph28%30.21 "Hg10 mi
7:00 pm54 °FClear.8 mph26%30.21 "Hg10 mi
6:40 pm54 °FClear.9 mph26%30.21 "Hg10 mi
6:20 pm55 °FClear.5 mph24%30.21 "Hg10 mi
6:00 pm61 °FClear.No wind20%30.22 "Hg10 mi
5:40 pm63 °FClear.No wind20%30.22 "Hg10 mi
5:20 pm63 °FClear.No wind19%30.23 "Hg10 mi
5:00 pm66 °FSunny.6 mph18%30.23 "Hg10 mi
4:40 pm68 °FSunny.5 mph16%30.23 "Hg10 mi
4:20 pm70 °FSunny.6 mph15%30.23 "Hg10 mi
3:20 pm70 °FSunny.6 mph15%30.25 "Hg10 mi
3:00 pm70 °FSunny.6 mph15%30.26 "Hg10 mi
2:40 pm70 °FSunny.No wind15%30.26 "Hg10 mi
2:20 pm70 °FMild.3 mph15%30.27 "Hg10 mi
2:00 pm72 °FMild.No wind14%30.28 "HgN/A
Weather by CustomWeather, © 2021

See weather overview